Aviation Digital Data Service (ADDS)

Output produced by TAFs form (0557 UTC 18 January 2018)
found at http://www.aviationweather.gov/adds/tafs/
 
KRWF 180520Z 1806/1906 24012KT P6SM SKC 
     FM180900 24011KT P6SM BKN150 
     FM181200 24010KT P6SM SKC
       
KMSP 180520Z 1806/1912 23008KT P6SM SKC 
     FM181000 23007KT P6SM BKN150 
     FM181400 23007KT P6SM SKC